Nordmerkur — P3TJ9 — position and weather

sailwx.info

Track history (hours):
 
Tides and Currents Weather Stations Pressure Air Temp Water Temp Dewpoint Dewpoint Depression Visibility Wind Speed Wind Dir Waves Ship Positions

Nordmerkur

Last reported at 2017-Dec-03 01:52 UTC. Time now 2017-Dec-11 19:08 UTC.
Position N 28°51' W 094°25'.
Warning: this ship's position is 8 days out of date.

Length 228 m; draft 12 m.

Type: Ship. MMSI: 212032000.

Date/timePositionNaut miles runAvg speedWind from/ knotsBaromVisibWave heightAir tempDewpointWater temp
2017-Dec-03 01:52N 28°51' W 094°25'513.1
2017-Dec-03 01:30N 28°55' W 094°25'713.0
2017-Dec-03 01:00N 29°02' W 094°25'612.4
2017-Dec-03 00:29N 29°08' W 094°27'612.8
2017-Dec-03 00:00N 29°13' W 094°32'511.0
2017-Dec-02 23:30N 29°17' W 094°36'610.8
2017-Dec-02 22:58N 29°20' W 094°41'5 9.9
2017-Dec-02 22:29N 29°21' W 094°47'4 9.5
2017-Dec-02 22:00N 29°25' W 094°49'5 9.6
2017-Dec-02 21:30N 29°29' W 094°52'5 9.8
2017-Dec-02 21:00N 29°33' W 094°55'510.2
2017-Dec-02 20:30N 29°38' W 094°58'5 9.4
2017-Dec-02 20:00N 29°42' W 094°60'4 7.1
2017-Dec-02 19:30N 29°44' W 095°03'3 5.2
2017-Dec-02 19:00N 29°45' W 095°06'3 5.5
2017-Dec-02 18:30N 29°44' W 095°09'1 0.0
2017-Dec-01 05:05N 29°44' W 095°10'0 0.1
2017-Dec-01 05:00N 29°44' W 095°10'1 1.9
2017-Dec-01 04:30N 29°44' W 095°09'3 6.0
2017-Dec-01 04:00N 29°45' W 095°06'3 6.8
2017-Dec-01 03:30N 29°44' W 095°02'4 7.3
2017-Dec-01 03:00N 29°41' W 094°59'510.5
2017-Dec-01 02:30N 29°36' W 094°57'510.8
2017-Dec-01 02:00N 29°32' W 094°54'611.0
2017-Dec-01 01:30N 29°27' W 094°51'611.2
2017-Dec-01 01:00N 29°22' W 094°48'4 0.3
2017-Nov-30 14:18N 29°21' W 094°44'0 0.0
2017-Nov-30 13:57N 29°21' W 094°44'0 0.0
2017-Nov-30 13:24N 29°21' W 094°44'0 0.0
2017-Nov-30 13:00N 29°21' W 094°44'0 0.0
2017-Nov-30 12:15N 29°21' W 094°44'0 0.0
2017-Nov-30 11:57N 29°21' W 094°44'0 0.0
2017-Nov-30 11:27N 29°21' W 094°44'0 0.3
2017-Nov-30 11:00N 29°21' W 094°44'0 0.2
2017-Nov-30 10:09N 29°21' W 094°44'0 0.0
2017-Nov-30 08:54N 29°21' W 094°44'0 0.0
2017-Nov-29 23:57N 29°21' W 094°44'  
2017-Nov-25 12:49N 29°22' W 094°53'0 0.7
2017-Nov-25 12:30N 29°22' W 094°53'3 5.3
2017-Nov-25 12:00N 29°22' W 094°50'  
2017-Nov-23 02:11N 29°23' W 094°49'212.4
2017-Nov-23 02:00N 29°25' W 094°50'  
Track history (hours):
 
Tides and Currents Weather Stations Pressure Air Temp Water Temp Dewpoint Dewpoint Depression Visibility Wind Speed Wind Dir Waves Ship Positions

Nordmerkur

Last reported at 2017-Dec-03 01:52 UTC. Time now 2017-Dec-11 19:08 UTC.
Position N 28°51' W 094°25'.
Warning: this ship's position is 8 days out of date.

Length 228 m; draft 12 m.

Type: Ship. MMSI: 212032000.

Date/timePositionNaut miles runAvg speedWind from/ knotsBaromVisibWave heightAir tempDewpointWater temp
2017-Dec-03 01:52N 28°51' W 094°25'513.1
2017-Dec-03 01:30N 28°55' W 094°25'713.0
2017-Dec-03 01:00N 29°02' W 094°25'612.4
2017-Dec-03 00:29N 29°08' W 094°27'612.8
2017-Dec-03 00:00N 29°13' W 094°32'511.0
2017-Dec-02 23:30N 29°17' W 094°36'610.8
2017-Dec-02 22:58N 29°20' W 094°41'5 9.9
2017-Dec-02 22:29N 29°21' W 094°47'4 9.5
2017-Dec-02 22:00N 29°25' W 094°49'5 9.6
2017-Dec-02 21:30N 29°29' W 094°52'5 9.8
2017-Dec-02 21:00N 29°33' W 094°55'510.2
2017-Dec-02 20:30N 29°38' W 094°58'5 9.4
2017-Dec-02 20:00N 29°42' W 094°60'4 7.1
2017-Dec-02 19:30N 29°44' W 095°03'3 5.2
2017-Dec-02 19:00N 29°45' W 095°06'3 5.5
2017-Dec-02 18:30N 29°44' W 095°09'1 0.0
2017-Dec-01 05:05N 29°44' W 095°10'0 0.1
2017-Dec-01 05:00N 29°44' W 095°10'1 1.9
2017-Dec-01 04:30N 29°44' W 095°09'3 6.0
2017-Dec-01 04:00N 29°45' W 095°06'3 6.8
2017-Dec-01 03:30N 29°44' W 095°02'4 7.3
2017-Dec-01 03:00N 29°41' W 094°59'510.5
2017-Dec-01 02:30N 29°36' W 094°57'510.8
2017-Dec-01 02:00N 29°32' W 094°54'611.0
2017-Dec-01 01:30N 29°27' W 094°51'611.2
2017-Dec-01 01:00N 29°22' W 094°48'4 0.3
2017-Nov-30 14:18N 29°21' W 094°44'0 0.0
2017-Nov-30 13:57N 29°21' W 094°44'0 0.0
2017-Nov-30 13:24N 29°21' W 094°44'0 0.0
2017-Nov-30 13:00N 29°21' W 094°44'0 0.0
2017-Nov-30 12:15N 29°21' W 094°44'0 0.0
2017-Nov-30 11:57N 29°21' W 094°44'0 0.0
2017-Nov-30 11:27N 29°21' W 094°44'0 0.3
2017-Nov-30 11:00N 29°21' W 094°44'0 0.2
2017-Nov-30 10:09N 29°21' W 094°44'0 0.0
2017-Nov-30 08:54N 29°21' W 094°44'0 0.0
2017-Nov-29 23:57N 29°21' W 094°44'  
2017-Nov-25 12:49N 29°22' W 094°53'0 0.7
2017-Nov-25 12:30N 29°22' W 094°53'3 5.3
2017-Nov-25 12:00N 29°22' W 094°50'  
2017-Nov-23 02:11N 29°23' W 094°49'212.4
2017-Nov-23 02:00N 29°25' W 094°50'  

Dump ship's entire track history